This is the latest recevied weather packets stored in our database for station/object WW5JC. If no packets are shown the sender has not sent any weather packets the latest 10 day(s).
| Time | Temp. | Humidity | Pressure | Rain* | Wind** | Luminosity | Snow |
|---|---|---|---|---|---|---|---|
| 1788448239 | 28.89° C | 75% | 1016.8 hPa | 0 mm | - | 210 W/m² | - |
| 1788447938 | 29.44° C | 75% | 1016.8 hPa | 0 mm | - | 252 W/m² | - |
| 1788447023 | 28.89° C | 76% | 1016.9 hPa | 0 mm | - | 328 W/m² | - |
| 1788446722 | 28.33° C | 76% | 1016.8 hPa | 0 mm | - | 210 W/m² | - |
| 1788445505 | 27.22° C | 81% | 1017 hPa | 0 mm | - | 121 W/m² | - |
| 1788445201 | 27.22° C | 81% | 1017 hPa | 0 mm | - | 158 W/m² | - |
| 1788444896 | 26.67° C | 82% | 1017 hPa | 0 mm | - | 145 W/m² | - |
| 1788443679 | 26.11° C | 85% | 1017.2 hPa | 0 mm | - | 101 W/m² | - |
| 1788443374 | 26.11° C | 84% | 1017.1 hPa | 0 mm | - | 115 W/m² | - |
| 1788442467 | 25.56° C | 86% | 1017 hPa | 0 mm | - | 102 W/m² | - |
| 1788442161 | 25.56° C | 87% | 1017 hPa | 0 mm | - | 137 W/m² | - |
| 1788441857 | 25° C | 88% | 1017 hPa | 0 mm | - | 105 W/m² | - |
| 1788441550 | 25° C | 88% | 1017 hPa | 0 mm | - | 94 W/m² | - |
| 1788441245 | 25° C | 88% | 1016.9 hPa | 0 mm | - | 75 W/m² | - |
| 1788440944 | 25° C | 89% | 1016.9 hPa | 0 mm | - | 68 W/m² | - |
| 1788440338 | 25° C | 89% | 1017 hPa | 0 mm | - | 63 W/m² | - |
| 1788440032 | 25° C | 89% | 1017 hPa | 0 mm | - | 70 W/m² | - |
| 1788439732 | 24.44° C | 90% | 1016.8 hPa | 0 mm | - | 50 W/m² | - |
| 1788439423 | 24.44° C | 90% | 1016.9 hPa | 0 mm | - | 39 W/m² | - |
| 1788439120 | 23.89° C | 91% | 1016.8 hPa | 0 mm | - | 28 W/m² | - |
| 1788438514 | 23.89° C | 92% | 1016.5 hPa | 0 mm | - | 20 W/m² | - |
| 1788438209 | 23.89° C | 92% | 1016.6 hPa | 0 mm | - | 17 W/m² | - |
| 1788437908 | 23.89° C | 92% | 1016.5 hPa | 0 mm | - | 14 W/m² | - |
| 1788437603 | 23.89° C | 93% | 1016.7 hPa | 0 mm | - | 11 W/m² | - |
| 1788437299 | 23.89° C | 93% | 1016.4 hPa | 0 mm | - | 8 W/m² | - |
* Rain latest hour (hover to see other rain measurements)
** Current wind speed in m/s (hover to see current wind gust speed)